Time;durP1;ratioP1;P1;durP2;ratioP2;P2;SDS_P1;SDS_P2;PMS_P1;PMS_P2;Temp;Humidity;BMP_temperature;BMP_pressure;BME280_temperature;BME280_humidity;BME280_pressure;Samples;Min_cycle;Max_cycle;Signal;HPM_P1;HPM_P2
2022/08/01 00:01:15;;;;;;;3.17;2.50;;;23.70;73.60;;;;;;6160024;23;20439;-75
2022/08/01 00:03:42;;;;;;;2.50;2.30;;;23.70;73.80;;;;;;6159515;23;20452;-74
2022/08/01 00:06:09;;;;;;;2.77;2.57;;;23.70;74.00;;;;;;6154229;23;20472;-75
2022/08/01 00:08:36;;;;;;;2.53;2.33;;;23.60;74.10;;;;;;6151001;23;20445;-75
2022/08/01 00:11:03;;;;;;;2.60;2.40;;;23.60;74.40;;;;;;6159703;23;20439;-75
2022/08/01 00:13:32;;;;;;;2.47;2.37;;;23.50;74.60;;;;;;6179786;23;20475;-75
2022/08/01 00:16:02;;;;;;;4.77;2.73;;;23.50;74.90;;;;;;6152353;23;21030;-73
2022/08/01 00:18:29;;;;;;;2.93;2.70;;;23.50;75.30;;;;;;6165680;23;20438;-74
2022/08/01 00:20:57;;;;;;;3.03;2.83;;;23.40;75.50;;;;;;6159840;23;20936;-74
2022/08/01 00:23:24;;;;;;;2.70;2.50;;;23.40;75.90;;;;;;6160404;23;20464;-75
2022/08/01 00:25:52;;;;;;;2.53;2.40;;;23.40;76.10;;;;;;6155669;23;20440;-75
2022/08/01 00:28:20;;;;;;;2.80;2.60;;;23.30;76.10;;;;;;6155611;23;20491;-75
2022/08/01 00:30:48;;;;;;;3.70;2.47;;;23.30;76.50;;;;;;6156448;23;20456;-76
2022/08/01 00:33:18;;;;;;;2.70;2.50;;;23.30;76.70;;;;;;6161817;23;20507;-76
2022/08/01 00:35:45;;;;;;;2.60;2.40;;;23.30;77.00;;;;;;6149440;23;20956;-76
2022/08/01 00:38:12;;;;;;;2.70;2.50;;;23.30;77.20;;;;;;6153675;23;20435;-75
2022/08/01 00:40:39;;;;;;;2.60;2.40;;;23.20;77.30;;;;;;6169435;23;20489;-75
2022/08/01 00:43:06;;;;;;;2.90;2.70;;;23.20;77.50;;;;;;6158387;23;20529;-75
2022/08/01 00:45:33;;;;;;;4.43;2.90;;;23.20;77.70;;;;;;6163227;23;20443;-75
2022/08/01 00:48:01;;;;;;;2.50;2.30;;;23.20;78.00;;;;;;6162487;23;20481;-72
2022/08/01 00:50:29;;;;;;;3.10;2.80;;;23.20;78.30;;;;;;6156805;23;20464;-74
2022/08/01 00:52:58;;;;;;;2.60;2.40;;;23.10;78.50;;;;;;6150609;23;20516;-75
2022/08/01 00:55:29;;;;;;;3.33;3.00;;;23.10;78.90;;;;;;6161572;23;20435;-74
2022/08/01 00:57:58;;;;;;;3.30;2.90;;;23.00;79.20;;;;;;6159984;23;20446;-74
2022/08/01 01:00:25;;;;;;;2.90;2.30;;;23.00;79.50;;;;;;6166645;23;20440;-75
2022/08/01 01:02:52;;;;;;;2.87;2.43;;;23.00;79.70;;;;;;6164492;23;20863;-75
2022/08/01 01:05:21;;;;;;;3.00;2.80;;;23.00;80.00;;;;;;6157840;23;20443;-74
2022/08/01 01:07:57;;;;;;;3.07;2.87;;;23.00;80.50;;;;;;6156054;23;20447;-75
2022/08/01 01:10:32;;;;;;;3.00;2.70;;;23.10;81.00;;;;;;6165421;23;20490;-75
2022/08/01 01:13:06;;;;;;;3.10;2.90;;;22.90;81.30;;;;;;6160439;23;20467;-74
2022/08/01 01:15:40;;;;;;;3.93;2.77;;;22.90;81.70;;;;;;6153747;23;20468;-74
2022/08/01 01:18:13;;;;;;;3.10;2.90;;;22.90;82.10;;;;;;6155528;23;20429;-74
2022/08/01 01:20:49;;;;;;;2.90;2.70;;;22.80;82.50;;;;;;6157812;23;21029;-74
2022/08/01 01:23:35;;;;;;;2.87;2.67;;;22.80;83.00;;;;;;6171609;23;20451;-75
2022/08/01 01:26:18;;;;;;;3.10;2.90;;;22.80;83.60;;;;;;6160535;23;20456;-75
2022/08/01 01:29:12;;;;;;;2.70;2.50;;;22.80;84.10;;;;;;6158648;23;21026;-74
2022/08/01 01:31:44;;;;;;;2.90;2.70;;;22.70;84.40;;;;;;6154643;23;20456;-74
2022/08/01 01:34:15;;;;;;;2.70;2.50;;;22.70;85.00;;;;;;6161993;23;20486;-75
2022/08/01 01:36:45;;;;;;;3.10;2.90;;;22.60;85.70;;;;;;6160654;23;20528;-75
2022/08/01 01:39:14;;;;;;;2.97;2.77;;;22.60;86.20;;;;;;6165733;23;21043;-75
2022/08/01 01:41:43;;;;;;;3.00;2.80;;;22.60;86.70;;;;;;6156216;23;20456;-74
2022/08/01 01:44:14;;;;;;;3.73;3.00;;;22.60;87.30;;;;;;6162039;23;20432;-75
2022/08/01 01:46:42;;;;;;;3.30;2.60;;;22.60;87.80;;;;;;6165376;23;20481;-73
2022/08/01 01:49:10;;;;;;;2.80;2.60;;;22.60;88.30;;;;;;6157578;23;20523;-75
2022/08/01 01:51:39;;;;;;;2.90;2.70;;;22.50;88.90;;;;;;6153595;23;20469;-74
2022/08/01 01:54:09;;;;;;;3.13;2.70;;;22.50;90.00;;;;;;6154085;23;20517;-74
2022/08/01 01:56:48;;;;;;;2.83;2.60;;;22.40;89.80;;;;;;6153497;23;20443;-75
2022/08/01 01:59:20;;;;;;;3.10;2.80;;;22.40;90.10;;;;;;6161701;23;20439;-74
2022/08/01 02:01:49;;;;;;;3.10;2.90;;;22.30;90.30;;;;;;6169426;23;20462;-74
2022/08/01 02:04:17;;;;;;;3.03;2.70;;;22.30;90.70;;;;;;6155442;23;20441;-75
2022/08/01 02:06:47;;;;;;;2.93;2.63;;;22.20;91.00;;;;;;6164228;23;20440;-74
2022/08/01 02:09:17;;;;;;;3.47;3.17;;;22.20;91.30;;;;;;6158763;23;20523;-74
2022/08/01 02:11:46;;;;;;;3.30;3.00;;;22.10;91.60;;;;;;6150449;23;20440;-75
2022/08/01 02:14:15;;;;;;;3.47;3.10;;;22.00;92.10;;;;;;6152064;23;20471;-74
2022/08/01 02:16:48;;;;;;;2.93;2.73;;;21.90;92.50;;;;;;6151934;23;20444;-74
2022/08/01 02:19:18;;;;;;;2.90;2.70;;;21.80;92.90;;;;;;6154949;23;20470;-74
2022/08/01 02:21:48;;;;;;;3.80;2.80;;;21.70;93.30;;;;;;6152596;23;20435;-74
2022/08/01 02:24:21;;;;;;;3.27;2.83;;;21.70;93.80;;;;;;6155998;23;20447;-74
2022/08/01 02:26:52;;;;;;;3.00;2.80;;;21.60;94.10;;;;;;6158927;23;20451;-73
2022/08/01 02:29:25;;;;;;;3.10;2.80;;;21.60;94.50;;;;;;6164484;23;20797;-73
2022/08/01 02:31:55;;;;;;;3.07;2.87;;;21.50;94.90;;;;;;6153205;23;20896;-74
2022/08/01 02:34:25;;;;;;;3.10;2.67;;;21.50;95.30;;;;;;6159997;23;20469;-74
2022/08/01 02:36:55;;;;;;;2.60;2.40;;;21.40;95.70;;;;;;6157419;23;21166;-75
2022/08/01 02:39:24;;;;;;;2.97;2.77;;;21.40;96.10;;;;;;6157950;23;20532;-75
2022/08/01 02:41:56;;;;;;;3.07;2.87;;;21.40;96.50;;;;;;6150286;23;20458;-74
2022/08/01 02:44:28;;;;;;;3.40;3.20;;;21.30;96.80;;;;;;6158909;23;20444;-74
2022/08/01 02:47:02;;;;;;;2.80;2.60;;;21.30;97.20;;;;;;6166968;23;20445;-76
2022/08/01 02:49:33;;;;;;;3.10;2.80;;;21.20;97.50;;;;;;6175793;23;20473;-74
2022/08/01 02:52:02;;;;;;;3.00;2.80;;;21.20;97.80;;;;;;6179869;23;20491;-73
2022/08/01 02:54:31;;;;;;;3.13;2.90;;;21.20;98.20;;;;;;6163880;23;20470;-74
2022/08/01 02:57:01;;;;;;;2.77;2.57;;;21.20;98.60;;;;;;6158198;23;20491;-74
2022/08/01 02:59:30;;;;;;;3.00;2.80;;;21.20;98.90;;;;;;6166159;23;20811;-74
2022/08/01 03:02:02;;;;;;;3.33;3.13;;;21.20;99.10;;;;;;6161056;23;20438;-74
2022/08/01 03:04:30;;;;;;;3.30;3.00;;;21.10;99.40;;;;;;6161473;23;20473;-76
2022/08/01 03:06:58;;;;;;;3.10;2.90;;;21.10;99.70;;;;;;6165635;23;20815;-75
2022/08/01 03:09:27;;;;;;;3.00;2.80;;;21.10;99.90;;;;;;6156241;23;20551;-74
2022/08/01 03:11:58;;;;;;;3.17;2.90;;;21.00;99.90;;;;;;6150920;23;20520;-74
2022/08/01 03:14:27;;;;;;;3.00;2.80;;;20.90;99.90;;;;;;6150862;23;20469;-75
2022/08/01 03:16:56;;;;;;;3.33;2.97;;;20.90;99.90;;;;;;6163882;23;20443;-76
2022/08/01 03:19:27;;;;;;;3.17;2.97;;;20.80;99.90;;;;;;6157217;23;20538;-74
2022/08/01 03:21:56;;;;;;;3.30;3.00;;;20.80;99.90;;;;;;6163005;23;20520;-75
2022/08/01 03:24:28;;;;;;;3.10;2.90;;;20.70;99.90;;;;;;6155777;23;20465;-75
2022/08/01 03:26:58;;;;;;;3.27;2.87;;;20.70;99.90;;;;;;6164390;23;20534;-75
2022/08/01 03:29:27;;;;;;;3.27;2.97;;;20.70;99.90;;;;;;6161779;23;20503;-75
2022/08/01 03:31:55;;;;;;;3.03;2.73;;;20.70;99.90;;;;;;6159611;23;20784;-75
2022/08/01 03:34:22;;;;;;;4.10;3.00;;;20.60;99.90;;;;;;6155243;23;20472;-75
2022/08/01 03:36:56;;;;;;;3.40;3.10;;;20.60;99.90;;;;;;6154796;23;20512;-75
2022/08/01 03:39:28;;;;;;;3.50;3.10;;;20.60;99.90;;;;;;6155587;23;20459;-75
2022/08/01 03:41:58;;;;;;;3.40;3.10;;;20.60;99.90;;;;;;6150459;23;20464;-75
2022/08/01 03:44:29;;;;;;;3.50;3.20;;;20.50;99.90;;;;;;6155294;23;20975;-75
2022/08/01 03:47:01;;;;;;;3.40;3.10;;;20.50;99.90;;;;;;6157622;23;20532;-74
2022/08/01 03:49:32;;;;;;;3.17;2.97;;;20.50;99.90;;;;;;6160602;23;20470;-74
2022/08/01 03:52:03;;;;;;;3.30;3.10;;;20.50;99.90;;;;;;6150547;23;20441;-74
2022/08/01 03:54:33;;;;;;;4.60;2.87;;;20.50;99.90;;;;;;6150996;23;20510;-74
2022/08/01 03:57:01;;;;;;;3.40;3.10;;;20.50;99.90;;;;;;6157656;23;20444;-75
2022/08/01 03:59:30;;;;;;;2.87;2.57;;;20.50;99.90;;;;;;6165629;23;20469;-74
2022/08/01 04:01:58;;;;;;;3.47;3.27;;;20.40;99.90;;;;;;6151493;23;20520;-75
2022/08/01 04:04:25;;;;;;;2.83;2.63;;;20.40;99.90;;;;;;6154913;23;20433;-74
2022/08/01 04:06:54;;;;;;;2.90;2.70;;;20.40;99.90;;;;;;6166078;23;20519;-74
2022/08/01 04:09:23;;;;;;;2.97;2.53;;;20.40;99.90;;;;;;6157936;23;20937;-74
2022/08/01 04:11:50;;;;;;;3.20;2.90;;;20.40;99.90;;;;;;6150272;23;20439;-74
2022/08/01 04:14:17;;;;;;;2.93;2.73;;;20.40;99.90;;;;;;6159203;23;20477;-74
2022/08/01 04:16:44;;;;;;;2.93;2.73;;;20.40;99.90;;;;;;6152280;23;20928;-74
2022/08/01 04:19:12;;;;;;;3.43;2.60;;;20.40;99.90;;;;;;6156978;23;20448;-74
2022/08/01 04:21:39;;;;;;;3.40;3.10;;;20.40;99.90;;;;;;6151698;23;20490;-75
2022/08/01 04:24:11;;;;;;;2.80;2.60;;;20.40;99.90;;;;;;6158923;23;20975;-75
2022/08/01 04:26:42;;;;;;;3.10;2.80;;;20.40;99.90;;;;;;6158589;23;20476;-74
2022/08/01 04:29:10;;;;;;;3.10;2.53;;;20.50;99.90;;;;;;6160875;23;20467;-75
2022/08/01 04:31:39;;;;;;;2.80;2.60;;;20.50;99.90;;;;;;6153555;23;20432;-74
2022/08/01 04:34:07;;;;;;;4.03;3.00;;;20.40;99.90;;;;;;6159567;23;20468;-74
2022/08/01 04:36:37;;;;;;;2.77;2.47;;;20.50;99.90;;;;;;6161213;23;20456;-75
2022/08/01 04:39:06;;;;;;;2.73;2.53;;;20.50;99.90;;;;;;6166061;23;20427;-75
2022/08/01 04:41:35;;;;;;;2.87;2.50;;;20.60;99.90;;;;;;6160439;23;20434;-75
2022/08/01 04:44:05;;;;;;;2.60;2.40;;;20.60;99.90;;;;;;6160892;23;20449;-74
2022/08/01 04:46:34;;;;;;;3.20;2.50;;;20.60;99.90;;;;;;6166378;23;20938;-74
2022/08/01 04:49:02;;;;;;;3.10;2.70;;;20.60;99.90;;;;;;6153547;23;20441;-75
2022/08/01 04:51:29;;;;;;;2.60;2.40;;;20.70;99.90;;;;;;6150981;23;20555;-74
2022/08/01 04:53:57;;;;;;;2.90;2.70;;;20.70;99.90;;;;;;6154260;23;20985;-75
2022/08/01 04:56:24;;;;;;;2.77;2.57;;;20.70;99.90;;;;;;6153940;23;20451;-74
2022/08/01 04:59:39;;;;;;;2.47;2.27;;;20.70;99.90;;;;;;6165760;23;20447;-74
2022/08/01 05:01:40;;;;;;;2.70;2.50;;;20.70;99.90;;;;;;6161646;23;20927;-74
2022/08/01 05:04:07;;;;;;;2.87;2.67;;;20.80;99.90;;;;;;6166224;23;20443;-74
2022/08/01 05:06:34;;;;;;;3.07;2.87;;;20.80;99.90;;;;;;6156396;23;20512;-74
2022/08/01 05:09:01;;;;;;;3.00;2.27;;;20.80;99.90;;;;;;6163372;23;20440;-74
2022/08/01 05:11:28;;;;;;;3.10;2.40;;;20.90;99.90;;;;;;6158880;23;20939;-75
2022/08/01 05:13:56;;;;;;;2.80;2.60;;;21.00;99.90;;;;;;6160435;23;20550;-74
2022/08/01 05:16:23;;;;;;;2.83;2.50;;;21.00;99.90;;;;;;6162500;23;20522;-74
2022/08/01 05:18:52;;;;;;;3.10;2.47;;;21.10;99.90;;;;;;6166326;23;20440;-73
2022/08/01 05:21:19;;;;;;;2.50;2.40;;;21.20;99.90;;;;;;6152367;23;20471;-74
2022/08/01 05:23:46;;;;;;;2.83;2.63;;;21.30;99.90;;;;;;6153421;23;20572;-74
2022/08/01 05:26:13;;;;;;;2.83;2.63;;;21.30;99.90;;;;;;6170367;23;20466;-74
2022/08/01 05:28:40;;;;;;;3.00;2.80;;;21.30;99.90;;;;;;6156777;23;20462;-74
2022/08/01 05:31:07;;;;;;;2.87;2.67;;;21.40;99.90;;;;;;6162292;23;20442;-73
2022/08/01 05:33:34;;;;;;;2.67;2.47;;;21.40;99.90;;;;;;6153884;23;20473;-73
2022/08/01 05:36:03;;;;;;;2.63;2.40;;;21.50;99.90;;;;;;6165206;23;20965;-74
2022/08/01 05:38:30;;;;;;;2.60;2.40;;;21.60;99.90;;;;;;6149088;23;20563;-74
2022/08/01 05:40:57;;;;;;;4.20;2.73;;;21.70;99.90;;;;;;6156466;23;20447;-74
2022/08/01 05:43:24;;;;;;;3.07;2.33;;;21.80;99.90;;;;;;6160395;23;20447;-74
2022/08/01 05:45:51;;;;;;;2.57;2.30;;;21.90;99.90;;;;;;6159888;23;20456;-75
2022/08/01 05:48:18;;;;;;;2.80;2.20;;;22.00;99.90;;;;;;6155466;23;20434;-75
2022/08/01 05:50:47;;;;;;;2.40;2.23;;;22.10;99.90;;;;;;6151364;23;20435;-75
2022/08/01 05:53:15;;;;;;;2.50;2.30;;;22.10;99.90;;;;;;6159803;23;20506;-76
2022/08/01 05:55:43;;;;;;;2.37;2.17;;;22.20;99.90;;;;;;6164028;23;20973;-76
2022/08/01 05:58:10;;;;;;;2.70;2.20;;;22.30;99.90;;;;;;6160198;23;20439;-74
2022/08/01 06:00:37;;;;;;;2.73;2.50;;;22.40;99.90;;;;;;6155675;23;20466;-80
2022/08/01 06:03:04;;;;;;;6.17;3.07;;;22.50;99.90;;;;;;6144810;23;21252;-75
2022/08/01 06:05:31;;;;;;;2.40;2.20;;;22.50;99.90;;;;;;6139622;23;20460;-75
2022/08/01 06:07:59;;;;;;;2.10;1.90;;;22.60;99.90;;;;;;6149416;23;20485;-75
2022/08/01 06:10:28;;;;;;;3.37;1.97;;;22.60;99.90;;;;;;6168140;23;20461;-75
2022/08/01 06:12:55;;;;;;;2.27;2.00;;;22.70;99.90;;;;;;6155587;23;20432;-77
2022/08/01 06:15:23;;;;;;;2.93;2.00;;;22.80;99.90;;;;;;6151722;23;20477;-76
2022/08/01 06:17:51;;;;;;;2.50;2.40;;;22.90;99.90;;;;;;6160206;23;20432;-77
2022/08/01 06:20:18;;;;;;;2.13;1.80;;;23.10;99.90;;;;;;6168071;23;20467;-77
2022/08/01 06:22:45;;;;;;;2.20;2.00;;;23.20;99.90;;;;;;6151981;23;20823;-76
2022/08/01 06:25:13;;;;;;;2.00;1.90;;;23.30;99.90;;;;;;6158266;23;20470;-76
2022/08/01 06:27:41;;;;;;;2.20;2.00;;;23.30;99.90;;;;;;6168592;23;20465;-77
2022/08/01 06:30:09;;;;;;;3.13;2.13;;;23.30;99.90;;;;;;6149186;23;20475;-77
2022/08/01 06:32:36;;;;;;;2.17;2.07;;;23.40;99.90;;;;;;6152723;23;20962;-77
2022/08/01 06:35:03;;;;;;;1.80;1.70;;;23.50;99.90;;;;;;6161074;23;20474;-77
2022/08/01 06:37:32;;;;;;;1.97;1.87;;;23.50;99.90;;;;;;6168841;23;21615;-76
2022/08/01 06:40:01;;;;;;;2.23;2.03;;;23.50;99.90;;;;;;6158952;23;20439;-76
2022/08/01 14:21:54;;;;;;;2.50;1.93;;;36.20;57.60;;;;;;6194925;22;20602;-78
2022/08/01 14:24:21;;;;;;;2.07;1.97;;;35.50;58.80;;;;;;6202804;23;20473;-79
2022/08/01 14:26:48;;;;;;;2.23;2.03;;;35.40;59.30;;;;;;6197421;23;20438;-79
2022/08/01 14:29:15;;;;;;;2.40;2.20;;;36.10;59.00;;;;;;6196302;23;20480;-79
2022/08/01 14:31:42;;;;;;;3.00;2.03;;;36.90;57.60;;;;;;6188763;23;20467;-79
2022/08/01 14:34:09;;;;;;;2.10;2.00;;;37.60;56.90;;;;;;6200122;23;20435;-80
2022/08/01 14:36:37;;;;;;;1.90;1.80;;;38.10;55.80;;;;;;6196466;23;20481;-79
2022/08/01 14:39:06;;;;;;;2.20;2.00;;;38.30;55.50;;;;;;6193541;23;20492;-79
2022/08/01 14:41:33;;;;;;;3.00;2.10;;;38.50;54.60;;;;;;6203411;23;20469;-81
2022/08/01 14:44:00;;;;;;;2.27;1.97;;;37.90;55.00;;;;;;6193763;23;20467;-79
2022/08/01 14:46:28;;;;;;;2.13;1.93;;;37.10;55.30;;;;;;6195890;23;20442;-81
2022/08/01 14:48:55;;;;;;;2.63;2.13;;;36.70;56.40;;;;;;6193488;23;20437;-80
2022/08/01 14:51:22;;;;;;;2.40;2.20;;;36.40;56.60;;;;;;6201379;23;20445;-80
2022/08/01 14:53:49;;;;;;;2.53;2.33;;;36.50;56.50;;;;;;6203584;23;21731;-80
2022/08/01 14:56:18;;;;;;;2.07;1.93;;;36.50;56.40;;;;;;6200330;23;20441;-79
2022/08/01 15:37:16;;;;;;;2.53;1.83;;;34.50;57.60;;;;;;6115443;23;20582;-79
2022/08/01 15:39:43;;;;;;;1.93;1.60;;;34.60;57.90;;;;;;6082064;23;20467;-76
2022/08/01 15:42:12;;;;;;;1.80;1.70;;;34.30;57.70;;;;;;6100197;23;20446;-77
2022/08/01 15:44:40;;;;;;;2.07;1.80;;;33.90;58.60;;;;;;6083898;23;20553;-76
2022/08/01 15:47:08;;;;;;;1.73;1.63;;;33.50;59.00;;;;;;6082917;23;20473;-75
2022/08/01 15:49:36;;;;;;;2.13;1.93;;;33.10;59.50;;;;;;6085110;23;20433;-76
2022/08/01 15:52:03;;;;;;;2.57;2.37;;;32.90;59.90;;;;;;6072810;23;20828;-76
2022/08/01 15:54:33;;;;;;;2.07;1.90;;;32.70;60.40;;;;;;6084675;23;20453;-77
2022/08/01 15:57:00;;;;;;;1.87;1.77;;;32.60;60.50;;;;;;6088727;23;20475;-76
2022/08/01 15:59:27;;;;;;;1.80;1.70;;;32.40;60.20;;;;;;6082157;23;20441;-76
2022/08/01 16:01:54;;;;;;;2.30;2.03;;;32.10;60.90;;;;;;6084557;23;20496;-76
2022/08/01 16:04:21;;;;;;;2.13;1.70;;;31.70;61.40;;;;;;6093161;23;20991;-76
2022/08/01 16:06:48;;;;;;;1.73;1.30;;;31.20;63.00;;;;;;6089672;23;20445;-76
2022/08/01 16:09:16;;;;;;;2.17;1.70;;;30.90;63.90;;;;;;6077440;23;20442;-76
2022/08/01 16:11:44;;;;;;;2.40;1.60;;;30.60;64.50;;;;;;6087187;23;20427;-76
2022/08/01 16:14:11;;;;;;;1.90;1.70;;;30.50;65.00;;;;;;6085512;23;20453;-76
2022/08/01 16:16:38;;;;;;;3.00;1.60;;;30.30;65.60;;;;;;6083710;23;21005;-75
2022/08/01 16:19:05;;;;;;;3.10;1.80;;;30.30;65.90;;;;;;6093192;23;20433;-76
2022/08/01 16:21:33;;;;;;;3.17;1.90;;;30.30;66.10;;;;;;6087419;23;20492;-76
2022/08/01 16:24:00;;;;;;;1.73;1.63;;;30.20;66.00;;;;;;6076797;23;20455;-76
2022/08/01 16:26:27;;;;;;;1.67;1.57;;;30.20;66.60;;;;;;6087038;23;20438;-76
2022/08/01 16:28:56;;;;;;;2.50;1.83;;;30.10;66.20;;;;;;6085774;23;20940;-76
2022/08/01 16:31:24;;;;;;;2.40;2.20;;;30.10;66.80;;;;;;6085699;23;20438;-75
2022/08/01 16:33:51;;;;;;;2.30;2.10;;;30.00;66.80;;;;;;6072122;23;20520;-77
2022/08/01 16:36:18;;;;;;;2.23;2.03;;;29.90;67.40;;;;;;6069955;23;20462;-75
2022/08/01 16:38:45;;;;;;;1.60;1.50;;;29.80;67.30;;;;;;6075930;23;20450;-74
2022/08/01 16:41:13;;;;;;;1.90;1.70;;;29.70;67.70;;;;;;6072559;23;20508;-74
2022/08/01 16:43:40;;;;;;;1.60;1.50;;;29.60;68.30;;;;;;6074354;23;21238;-74
2022/08/01 16:46:09;;;;;;;1.50;1.40;;;29.50;68.50;;;;;;6073595;23;20529;-74
2022/08/01 16:48:36;;;;;;;1.70;1.60;;;29.40;68.70;;;;;;6087466;23;20437;-75
2022/08/01 16:51:03;;;;;;;2.17;1.97;;;29.20;68.90;;;;;;6081856;23;20461;-74
2022/08/01 16:53:31;;;;;;;1.90;1.80;;;29.20;69.60;;;;;;6063332;23;21014;-74
2022/08/01 16:55:58;;;;;;;1.93;1.43;;;29.00;69.60;;;;;;6071148;23;20462;-74
2022/08/01 16:58:25;;;;;;;1.70;1.60;;;28.90;70.10;;;;;;6081164;23;20471;-75
2022/08/01 17:00:52;;;;;;;1.43;1.33;;;28.80;70.10;;;;;;6070001;23;20941;-74
2022/08/01 17:03:22;;;;;;;1.47;1.37;;;28.80;70.70;;;;;;6078701;23;20522;-73
2022/08/01 17:05:50;;;;;;;3.70;1.93;;;28.70;70.80;;;;;;6078612;23;20435;-73
2022/08/01 17:08:17;;;;;;;1.60;1.50;;;28.60;71.30;;;;;;6066163;23;20550;-73
2022/08/01 17:10:44;;;;;;;1.73;1.57;;;28.50;71.50;;;;;;6085082;23;20434;-73
2022/08/01 17:13:12;;;;;;;1.60;1.50;;;28.40;71.70;;;;;;6064797;23;20461;-73
2022/08/01 17:15:39;;;;;;;1.70;1.50;;;28.30;71.80;;;;;;6081180;23;20480;-73
2022/08/01 17:18:06;;;;;;;1.40;1.30;;;28.20;72.10;;;;;;6080703;23;20941;-73
2022/08/01 17:20:35;;;;;;;1.63;1.53;;;28.20;72.70;;;;;;6083181;23;21012;-73
2022/08/01 17:23:03;;;;;;;1.80;1.47;;;28.10;72.90;;;;;;6088820;23;20442;-73
2022/08/01 17:25:30;;;;;;;1.97;1.60;;;28.20;73.00;;;;;;6084227;23;20438;-73
2022/08/01 17:27:57;;;;;;;1.60;1.50;;;28.20;72.80;;;;;;6082265;23;20458;-74
2022/08/01 17:30:24;;;;;;;1.70;1.60;;;28.20;73.10;;;;;;6074181;23;20494;-74
2022/08/01 17:32:51;;;;;;;2.47;2.00;;;28.20;73.10;;;;;;6076288;23;20458;-73
2022/08/01 17:35:18;;;;;;;1.80;1.70;;;28.30;73.30;;;;;;6067753;23;20439;-73
2022/08/01 17:37:47;;;;;;;1.93;1.40;;;28.30;73.50;;;;;;6080292;23;20520;-74
2022/08/01 17:40:14;;;;;;;1.60;1.50;;;28.30;73.30;;;;;;6080513;23;20442;-74
2022/08/01 17:42:41;;;;;;;1.50;1.40;;;28.20;73.20;;;;;;6079098;23;20443;-74
2022/08/01 17:45:10;;;;;;;1.60;1.50;;;28.10;73.60;;;;;;6078066;23;20452;-75
2022/08/01 17:47:39;;;;;;;1.57;1.47;;;28.10;73.80;;;;;;6082491;23;20442;-74
2022/08/01 17:50:09;;;;;;;2.80;1.50;;;27.90;74.00;;;;;;6075138;23;20434;-74
2022/08/01 17:52:37;;;;;;;2.40;1.60;;;27.80;74.50;;;;;;6079272;23;20444;-74
2022/08/01 17:55:06;;;;;;;1.60;1.50;;;27.60;74.90;;;;;;6084130;23;20452;-74
2022/08/01 17:57:33;;;;;;;2.70;2.17;;;27.50;75.50;;;;;;6076560;23;20467;-74
2022/08/01 18:00:00;;;;;;;1.40;1.30;;;27.10;75.70;;;;;;6076421;23;20825;-74
2022/08/01 18:02:27;;;;;;;1.47;1.37;;;27.20;76.40;;;;;;6073754;23;20851;-73
2022/08/01 18:04:54;;;;;;;2.00;1.33;;;27.10;77.00;;;;;;6073642;23;20449;-74
2022/08/01 18:07:22;;;;;;;2.50;1.30;;;27.00;77.40;;;;;;6071959;23;20771;-73
2022/08/01 18:09:49;;;;;;;1.73;1.30;;;26.90;77.90;;;;;;6071554;23;20458;-73
2022/08/01 18:12:18;;;;;;;1.53;1.23;;;26.80;78.30;;;;;;6075229;23;20767;-74
2022/08/01 18:14:46;;;;;;;1.63;1.53;;;26.80;78.90;;;;;;6078633;23;20500;-75
2022/08/01 18:17:13;;;;;;;1.60;1.50;;;26.70;79.20;;;;;;6080049;23;20470;-75
2022/08/01 18:19:41;;;;;;;1.90;1.53;;;26.70;79.60;;;;;;6070720;23;20435;-75
2022/08/01 18:22:08;;;;;;;1.60;1.40;;;26.60;79.90;;;;;;6077951;23;20512;-75
2022/08/01 18:24:35;;;;;;;1.77;1.50;;;26.60;80.20;;;;;;6085497;23;20447;-74
2022/08/01 18:27:02;;;;;;;3.63;1.83;;;26.60;80.50;;;;;;6082132;23;20439;-75
2022/08/01 18:29:31;;;;;;;1.60;1.50;;;26.60;80.80;;;;;;6078602;23;20996;-75
2022/08/01 18:32:01;;;;;;;3.10;1.87;;;26.50;81.00;;;;;;6082583;23;20441;-74
2022/08/01 18:34:29;;;;;;;2.03;1.83;;;26.50;81.00;;;;;;6081000;23;20442;-76
2022/08/01 18:36:56;;;;;;;1.93;1.80;;;26.60;81.20;;;;;;6071601;23;20536;-74
2022/08/01 18:39:23;;;;;;;1.87;1.63;;;26.50;81.30;;;;;;6078143;23;20485;-78
2022/08/01 18:41:51;;;;;;;1.60;1.50;;;26.50;81.70;;;;;;6068518;23;20848;-76
2022/08/01 18:44:18;;;;;;;1.67;1.57;;;26.40;81.90;;;;;;6080744;23;20434;-74
2022/08/01 18:46:46;;;;;;;1.93;1.80;;;26.40;82.20;;;;;;6084915;23;20434;-74
2022/08/01 18:49:13;;;;;;;2.27;1.63;;;26.30;82.50;;;;;;6078249;23;20474;-74
2022/08/01 18:51:41;;;;;;;1.60;1.30;;;26.30;82.60;;;;;;6081085;23;20542;-74
2022/08/01 18:54:08;;;;;;;1.60;1.50;;;26.20;82.60;;;;;;6084551;23;20469;-74
2022/08/01 18:56:35;;;;;;;1.97;1.77;;;26.10;83.60;;;;;;6088285;23;20537;-74
2022/08/01 18:59:02;;;;;;;1.80;1.70;;;26.10;83.00;;;;;;6070447;23;21552;-75
2022/08/01 19:01:29;;;;;;;1.97;1.83;;;26.00;82.90;;;;;;6063212;23;20433;-75
2022/08/01 19:03:57;;;;;;;2.93;2.30;;;26.00;83.10;;;;;;6083222;23;20517;-71
2022/08/01 19:06:25;;;;;;;4.03;2.03;;;26.00;83.30;;;;;;6081650;23;20466;-73
2022/08/01 19:08:53;;;;;;;1.93;1.40;;;25.90;83.40;;;;;;6084039;23;20892;-74
2022/08/01 19:11:21;;;;;;;1.50;1.40;;;25.90;83.30;;;;;;6069368;23;20438;-74
2022/08/01 19:13:48;;;;;;;2.40;1.50;;;25.80;83.30;;;;;;6080898;23;20485;-74
2022/08/01 19:16:16;;;;;;;1.40;1.30;;;25.80;83.30;;;;;;6079904;23;20441;-73
2022/08/01 19:18:43;;;;;;;1.70;1.53;;;25.70;83.40;;;;;;6076420;23;20513;-74
2022/08/01 19:21:12;;;;;;;2.00;1.33;;;25.70;83.70;;;;;;6076380;23;20782;-73
2022/08/01 19:26:25;;;;;;;2.13;1.40;;;25.60;84.10;;;;;;6082140;23;20481;-73
2022/08/01 19:28:57;;;;;;;1.80;1.70;;;25.60;84.60;;;;;;6072268;23;20534;-73
2022/08/01 19:31:26;;;;;;;1.40;1.30;;;25.50;84.90;;;;;;6070825;23;20531;-73
2022/08/01 19:33:54;;;;;;;1.60;1.50;;;25.50;85.20;;;;;;6078293;23;21020;-74
2022/08/01 19:36:23;;;;;;;1.40;1.30;;;25.40;85.40;;;;;;6076443;23;20482;-73
2022/08/01 19:38:50;;;;;;;2.37;1.40;;;25.30;85.60;;;;;;6074227;23;20542;-74
2022/08/01 19:41:18;;;;;;;1.70;1.60;;;25.30;85.80;;;;;;6079213;23;20483;-74
2022/08/01 19:43:46;;;;;;;1.20;1.10;;;25.30;86.00;;;;;;6075125;23;20463;-73
2022/08/01 19:46:14;;;;;;;2.37;1.20;;;25.20;86.20;;;;;;6073195;23;20781;-79
2022/08/01 19:48:41;;;;;;;4.60;1.63;;;25.20;86.20;;;;;;6073645;23;20462;-74
2022/08/01 19:51:15;;;;;;;2.07;1.60;;;25.20;86.60;;;;;;6076527;23;20459;-74
2022/08/01 19:53:50;;;;;;;3.70;1.27;;;25.10;86.80;;;;;;6077305;23;20528;-74
2022/08/01 19:56:19;;;;;;;1.77;1.37;;;25.10;86.80;;;;;;6079447;23;20444;-73
2022/08/01 19:58:51;;;;;;;1.30;1.13;;;25.10;87.20;;;;;;6079582;23;20525;-74
2022/08/01 20:01:19;;;;;;;1.13;1.03;;;25.00;87.40;;;;;;6080929;23;20433;-74
2022/08/01 20:03:48;;;;;;;2.80;1.20;;;25.00;87.70;;;;;;6073379;23;20525;-74
2022/08/01 20:06:15;;;;;;;1.40;1.17;;;25.00;87.90;;;;;;6066888;23;20439;-78
2022/08/01 20:08:44;;;;;;;1.40;1.30;;;25.00;88.30;;;;;;6069944;23;20468;-75
2022/08/01 20:11:12;;;;;;;1.30;1.20;;;24.90;88.40;;;;;;6089091;23;20925;-75
2022/08/01 20:13:39;;;;;;;1.80;1.50;;;24.90;88.60;;;;;;6078811;23;20485;-75
2022/08/01 20:16:07;;;;;;;2.23;1.23;;;24.90;88.80;;;;;;6064795;23;20513;-74
2022/08/01 20:18:35;;;;;;;1.80;1.13;;;24.80;89.00;;;;;;6085843;23;20526;-75
2022/08/01 20:21:03;;;;;;;1.83;1.40;;;24.80;89.30;;;;;;6104942;23;20436;-76
2022/08/01 20:23:31;;;;;;;1.70;1.20;;;24.70;89.40;;;;;;6073187;23;20951;-75
2022/08/01 20:26:00;;;;;;;1.20;1.10;;;24.70;89.70;;;;;;6064255;23;20514;-75
2022/08/01 20:28:29;;;;;;;1.13;1.03;;;24.70;90.00;;;;;;6077198;23;20461;-74
2022/08/01 20:30:59;;;;;;;3.13;1.30;;;24.70;90.30;;;;;;6084030;23;20969;-74
2022/08/01 20:33:27;;;;;;;1.30;1.20;;;24.60;90.40;;;;;;6069761;23;20469;-74
2022/08/01 20:35:56;;;;;;;1.87;1.10;;;24.50;90.50;;;;;;6079895;23;20460;-74
2022/08/01 20:38:25;;;;;;;1.63;1.30;;;24.40;90.70;;;;;;6072118;23;20482;-74
2022/08/01 20:40:57;;;;;;;1.87;1.10;;;24.50;90.90;;;;;;6081122;23;20517;-74
2022/08/01 20:43:26;;;;;;;2.70;1.20;;;24.40;90.90;;;;;;6075275;23;20836;-74
2022/08/01 20:45:53;;;;;;;1.67;1.40;;;24.40;90.90;;;;;;6074639;23;20458;-74
2022/08/01 20:48:21;;;;;;;1.70;1.27;;;24.40;91.00;;;;;;6073839;23;21019;-74
2022/08/01 20:53:39;;;;;;;1.40;1.30;;;24.40;91.10;;;;;;6068248;23;20942;-74
2022/08/01 20:56:09;;;;;;;1.20;1.00;;;24.40;91.10;;;;;;6079611;23;20457;-74
2022/08/01 20:58:53;;;;;;;2.20;1.30;;;24.40;91.20;;;;;;6078031;23;20509;-74
2022/08/01 21:01:26;;;;;;;2.03;1.20;;;24.40;91.30;;;;;;6087294;23;20453;-74
2022/08/01 21:04:09;;;;;;;1.50;1.00;;;24.30;91.30;;;;;;6081024;23;20537;-74
2022/08/01 21:06:41;;;;;;;2.20;1.53;;;24.30;91.40;;;;;;6076038;23;20450;-74
2022/08/01 21:09:10;;;;;;;2.53;1.30;;;24.30;91.70;;;;;;6077355;23;20448;-74
2022/08/01 21:11:42;;;;;;;2.00;1.20;;;24.20;91.60;;;;;;6080192;23;20439;-73
2022/08/01 21:14:15;;;;;;;2.13;1.20;;;24.20;92.00;;;;;;6075521;23;20502;-74
2022/08/01 21:16:52;;;;;;;1.80;1.10;;;24.20;92.20;;;;;;6086971;23;21011;-74
2022/08/01 21:19:25;;;;;;;1.10;1.00;;;24.10;92.50;;;;;;6083074;23;20445;-74